Terminal Aerodrome Forecast
Issued by NWS

Home | Current Version | Previous Version | Text Only | Print | Product List | Glossary On
Versions: 1 2 3 4 5 6 7 8 9 10 11 12 13 14 15 16 17 18 19 20 21 22 23 24 25 26 27 28 29 30 31 32 33 34 35 36 37 38 39 40 41 42 43 44 45 46 47 48 49 50
499
FTUS43 KBIS 161133
TAFDIK
TAF
KDIK 161133Z 1612/1712 26008KT P6SM FEW040 SCT070 BKN100
     FM161700 27014G23KT P6SM SCT200
     FM170200 27011KT P6SM FEW250=

USA.gov is the U.S. government's official web portal to all federal, state and local government web resources and services.